• Join FlightAware (Why Join?)
  • Login
  • US Flag 
10:42PM EDT


 

Airport Tracker/Info


-or-


 

Live Flight TrackerFlight Track Log ✈ WIG7417 ✈ 09-Oct-2013 ✈ KPBG - KSYR

Flight Track Log - Related Links

Times and Time Zones

All times are in EDT time to prevent confusion due to time zone crossing. See the WIG7417 flight status page for this flight to view local times or setup timezone preferences in your user account.

Time Position Orientation Groundspeed Altitude Reporting Facility
EDT Latitude Longitude Course Direction KTS MPH feet Rate Location/Type
07:34PM 44.5295 -73.6852 216° Southwest  Level Estimated
07:35PM 44.5092 -73.7214 232° Southwest  Level Estimated
07:35PM 44.6650 -73.6806 231° Southwest 125 144 7,500  Level Boston Center
07:36PM 44.4887 -73.7572 231° Southwest  Level FlightAware Approximate
07:36PM 44.6439 -73.7181 232° Southwest 125 144 8,400  Level Boston Center
07:37PM 44.4681 -73.7929 231° Southwest  Level FlightAware Approximate
07:37PM 44.6225 -73.7556 231° Southwest 130 150 9,100  Level Boston Center
07:38PM 44.4476 -73.8287 231° Southwest  Level FlightAware Approximate
07:38PM 44.5950 -73.7956 226° Southwest 130 150 10,000  Level Boston Center
07:39PM 44.4270 -73.8644 231° Southwest  Level FlightAware Approximate
07:39PM 44.5675 -73.8417 230° Southwest 142 163 10,100  Level Boston Center
07:40PM 44.5419 -73.8906 234° Southwest 154 177 10,000 -60 Descending Boston Center
07:41PM 44.5100 -73.9364 226° Southwest 154 177 10,000  Level Boston Center
07:42PM 44.4844 -73.9764 228° Southwest 160 184 10,100  Climbing Boston Center
07:43PM 44.4567 -74.0253 231° Southwest 160 184 10,100  Level Boston Center
07:44PM 44.4247 -74.0708 226° Southwest 160 184 10,100  Level Boston Center
07:45PM 44.3969 -74.1164 230° Southwest 160 184 10,100 -60 Level Boston Center
07:46PM 44.3653 -74.1592 224° Southwest 160 184 10,000 -60 Descending Boston Center
07:47PM 44.3372 -74.2078 231° Southwest 160 184 10,000  Level Boston Center
07:48PM 44.3094 -74.2533 230° Southwest 160 184 10,000  Level Boston Center
07:49PM 44.2817 -74.3017 231° Southwest 160 184 10,000  Level Boston Center
07:50PM 44.2517 -74.3472 227° Southwest 160 184 10,000  Level Boston Center
07:51PM 44.2217 -74.3956 229° Southwest 160 184 10,000  Level Boston Center
07:52PM 44.1939 -74.4408 229° Southwest 160 184 10,000  Level Boston Center
07:53PM 44.1639 -74.4861 227° Southwest 160 184 10,000  Level Boston Center
07:54PM 44.1361 -74.5317 230° Southwest 160 184 10,000  Level Boston Center
07:55PM 44.1061 -74.5767 227° Southwest 160 184 10,000  Level Boston Center
07:56PM 44.0761 -74.6219 227° Southwest 160 184 10,000  Level Boston Center
07:57PM 44.0481 -74.6700 231° Southwest 160 184 10,000  Level Boston Center
07:58PM 44.0181 -74.7122 225° Southwest 160 184 10,000  Level Boston Center
07:59PM 43.9900 -74.7603 231° Southwest 160 184 10,000  Level Boston Center
08:00PM 43.9619 -74.8053 229° Southwest 155 178 10,000  Level Boston Center
08:01PM 43.9339 -74.8531 231° Southwest 160 184 10,000  Level Boston Center
08:02PM 43.9039 -74.8953 225° Southwest 160 184 10,000  Level Boston Center
08:03PM 43.8736 -74.9431 229° Southwest 160 184 10,000  Level Boston Center
08:03PM 43.8628 -74.9656 236° Southwest 159 183 10,000  Level Boston Center
08:04PM 43.8433 -74.9878 220° Southwest 160 184 10,000  Level Boston Center
08:04PM 43.8433 -74.9906 270° West 159 183 10,000  Level Boston Center
08:05PM 43.8175 -75.0328 230° Southwest 160 184 10,000  Level Boston Center
08:05PM 43.8153 -75.0356 222° Southwest 159 183 10,000  Level Boston Center
08:06PM 43.7850 -75.0803 227° Southwest 160 184 10,000 60 Level Boston Center
08:06PM 43.7783 -75.0942 236° Southwest 164 189 10,100  Climbing Boston Center
08:07PM 43.7569 -75.1250 226° Southwest 160 184 10,000  Descending Boston Center
08:07PM 43.7483 -75.1389 229° Southwest 166 191 10,100  Climbing Boston Center
08:08PM 43.7286 -75.1725 231° Southwest 160 184 10,000  Descending Boston Center
08:08PM 43.7178 -75.1864 223° Southwest 160 184 10,100  Climbing Boston Center
08:09PM 43.6983 -75.2172 229° Southwest 160 184 10,000  Descending Boston Center
08:09PM 43.6919 -75.2256 223° Southwest 159 183 10,100  Climbing Boston Center
08:10PM 43.6703 -75.2647 233° Southwest 160 184 10,000  Descending Boston Center
08:10PM 43.6617 -75.2728 214° Southwest 161 185 10,100  Climbing Boston Center
08:11PM 43.6400 -75.3092 231° Southwest 160 184 10,000  Descending Boston Center
08:11PM 43.6292 -75.3200 216° Southwest 161 185 10,100  Climbing Boston Center
08:12PM 43.6094 -75.3564 233° Southwest 160 184 10,000  Descending Boston Center
08:12PM 43.6008 -75.3703 229° Southwest 162 186 10,100  Climbing Boston Center
08:13PM 43.5792 -75.4039 228° Southwest 160 184 10,000  Descending Boston Center
08:13PM 43.5706 -75.4147 222° Southwest 162 186 10,100  Climbing Boston Center
08:14PM 43.5508 -75.4511 233° Southwest 160 184 10,000  Descending Boston Center
08:14PM 43.5381 -75.4619 212° Southwest 163 188 10,100 60 Climbing Boston Center
08:15PM 43.5075 -75.5061 226° Southwest 163 188 10,100 -120 Level Boston Center
08:16PM 43.4792 -75.5533 230° Southwest 166 191 9,900 -600 Descending Boston Center
08:17PM 43.4553 -75.5950 232° Southwest 165 190 9,000 -1,140 Descending Boston Center
08:17PM 43.4444 -75.6089 223° Southwest 190 219 8,800 -1,020 Descending Boston Center
08:18PM 43.4203 -75.6475 229° Southwest 178 205 8,000 -1,080 Descending Boston Center
08:18PM 43.4094 -75.6614 223° Southwest 193 222 7,700 -1,140 Descending Boston Center
08:19PM 43.3725 -75.7167 227° Southwest 185 213 6,800 -960 Descending Boston Center
08:20PM 43.3378 -75.7689 228° Southwest 180 207 5,800 -960 Descending Boston Center
08:21PM 43.3047 -75.8214 229° Southwest 177 204 4,900 -960 Descending Boston Center
08:22PM 43.2742 -75.8681 228° Southwest 172 198 3,900 -840 Descending Boston Center
08:23PM 43.2417 -75.9147 226° Southwest 173 199 3,200 -780 Descending Boston Center
08:24PM 43.2050 -75.9525 217° Southwest 166 191 2,400 -600 Descending Boston Center
08:25PM 43.1686 -75.9847 213° Southwest 161 185 2,000 -360 Descending Boston Center
08:26PM 43.1364 -76.0142 214° Southwest 123 142 1,700 -360 Descending Boston Center
08:27PM 43.1144 -76.0497 230° Southwest 114 131 1,300 -420 Descending Boston Center